Melrose, Virginia
Current Conditions -  °F | °C
As of 4:54 PM on Friday 31 Oct 2014 (Local Time) from KROA Reporting Station
Overcast Overcast  
Wind Chill: 53°   Ceiling: 4800
Heat Index: 53°   Visibility: 10mi
Dew Point: 36°   Wind: 8mph
Humidity: 52%   Direction: 130°SE
Pressure: 29.83"   Gusts: NA
Location:  37.2953°N, 79.9917°W
Report Text: KROA 312054Z 13007KT 10SM OVC048 12/02 A2983 RMK AO2 SLP103 T01170022 55015
Loading
Personal Weather Stations






























Interactive Weather Map
Tropical Storm Tracking
New forecast layout! Learn more

10-Day Weather Forecast

Advertisements
Track Severe Weather on mobile